sensor_id;sensor_type;location;lat;lon;timestamp;P1;durP1;ratioP1;P2;durP2;ratioP2
9056;SDS011;4563;54.756;9.400;2023-06-26T00:01:45;3.73;;;2.27;;
9056;SDS011;4563;54.756;9.400;2023-06-26T00:04:16;1.97;;;1.87;;
9056;SDS011;4563;54.756;9.400;2023-06-26T00:06:44;3.70;;;2.57;;
9056;SDS011;4563;54.756;9.400;2023-06-26T00:09:13;3.77;;;2.07;;
9056;SDS011;4563;54.756;9.400;2023-06-26T00:11:40;2.87;;;2.13;;
9056;SDS011;4563;54.756;9.400;2023-06-26T00:14:08;3.47;;;2.20;;
9056;SDS011;4563;54.756;9.400;2023-06-26T00:16:36;2.30;;;2.10;;
9056;SDS011;4563;54.756;9.400;2023-06-26T00:19:03;2.17;;;2.07;;
9056;SDS011;4563;54.756;9.400;2023-06-26T00:21:32;2.63;;;2.37;;
9056;SDS011;4563;54.756;9.400;2023-06-26T00:24:01;2.33;;;2.20;;
9056;SDS011;4563;54.756;9.400;2023-06-26T00:26:31;2.13;;;2.00;;
9056;SDS011;4563;54.756;9.400;2023-06-26T00:28:59;2.50;;;2.30;;
9056;SDS011;4563;54.756;9.400;2023-06-26T00:31:27;2.47;;;2.07;;
9056;SDS011;4563;54.756;9.400;2023-06-26T00:33:54;2.13;;;2.03;;
9056;SDS011;4563;54.756;9.400;2023-06-26T00:36:21;2.30;;;2.10;;
9056;SDS011;4563;54.756;9.400;2023-06-26T00:38:50;2.33;;;2.10;;
9056;SDS011;4563;54.756;9.400;2023-06-26T00:41:17;2.70;;;2.07;;
9056;SDS011;4563;54.756;9.400;2023-06-26T00:43:44;2.00;;;1.90;;
9056;SDS011;4563;54.756;9.400;2023-06-26T00:46:14;2.47;;;2.27;;
9056;SDS011;4563;54.756;9.400;2023-06-26T00:48:42;1.73;;;1.63;;
9056;SDS011;4563;54.756;9.400;2023-06-26T00:51:09;2.57;;;2.37;;
9056;SDS011;4563;54.756;9.400;2023-06-26T00:53:37;2.50;;;2.30;;
9056;SDS011;4563;54.756;9.400;2023-06-26T00:56:06;2.00;;;1.90;;
9056;SDS011;4563;54.756;9.400;2023-06-26T00:58:34;1.90;;;1.80;;
9056;SDS011;4563;54.756;9.400;2023-06-26T01:01:04;2.67;;;2.30;;
9056;SDS011;4563;54.756;9.400;2023-06-26T01:03:33;2.13;;;1.97;;
9056;SDS011;4563;54.756;9.400;2023-06-26T01:06:02;2.10;;;1.87;;
9056;SDS011;4563;54.756;9.400;2023-06-26T01:08:29;2.13;;;2.03;;
9056;SDS011;4563;54.756;9.400;2023-06-26T01:10:56;2.20;;;2.00;;
9056;SDS011;4563;54.756;9.400;2023-06-26T01:13:27;2.77;;;2.57;;
9056;SDS011;4563;54.756;9.400;2023-06-26T01:15:55;1.80;;;1.70;;
9056;SDS011;4563;54.756;9.400;2023-06-26T01:18:24;2.37;;;2.17;;
9056;SDS011;4563;54.756;9.400;2023-06-26T01:20:52;1.90;;;1.80;;
9056;SDS011;4563;54.756;9.400;2023-06-26T01:23:30;2.10;;;2.00;;
9056;SDS011;4563;54.756;9.400;2023-06-26T01:26:15;2.33;;;1.80;;
9056;SDS011;4563;54.756;9.400;2023-06-26T01:28:45;3.87;;;1.77;;
9056;SDS011;4563;54.756;9.400;2023-06-26T01:31:14;2.03;;;1.93;;
9056;SDS011;4563;54.756;9.400;2023-06-26T01:33:42;2.40;;;2.27;;
9056;SDS011;4563;54.756;9.400;2023-06-26T01:36:10;2.10;;;2.00;;
9056;SDS011;4563;54.756;9.400;2023-06-26T01:38:37;2.50;;;1.73;;
9056;SDS011;4563;54.756;9.400;2023-06-26T01:41:09;1.93;;;1.77;;
9056;SDS011;4563;54.756;9.400;2023-06-26T01:43:40;2.40;;;2.20;;
9056;SDS011;4563;54.756;9.400;2023-06-26T01:46:15;2.60;;;2.13;;
9056;SDS011;4563;54.756;9.400;2023-06-26T01:48:50;4.10;;;2.10;;
9056;SDS011;4563;54.756;9.400;2023-06-26T01:51:26;2.40;;;2.30;;
9056;SDS011;4563;54.756;9.400;2023-06-26T01:53:57;2.83;;;2.37;;
9056;SDS011;4563;54.756;9.400;2023-06-26T01:56:24;2.33;;;2.23;;
9056;SDS011;4563;54.756;9.400;2023-06-26T01:58:56;2.43;;;2.20;;
9056;SDS011;4563;54.756;9.400;2023-06-26T02:01:24;2.40;;;2.20;;
9056;SDS011;4563;54.756;9.400;2023-06-26T02:03:51;2.30;;;2.00;;
9056;SDS011;4563;54.756;9.400;2023-06-26T02:06:18;1.80;;;1.70;;
9056;SDS011;4563;54.756;9.400;2023-06-26T02:08:45;2.70;;;2.50;;
9056;SDS011;4563;54.756;9.400;2023-06-26T02:11:13;1.90;;;1.80;;
9056;SDS011;4563;54.756;9.400;2023-06-26T02:13:40;2.07;;;1.87;;
9056;SDS011;4563;54.756;9.400;2023-06-26T02:16:08;4.37;;;2.00;;
9056;SDS011;4563;54.756;9.400;2023-06-26T02:18:35;2.77;;;2.57;;
9056;SDS011;4563;54.756;9.400;2023-06-26T02:21:03;3.60;;;2.27;;
9056;SDS011;4563;54.756;9.400;2023-06-26T02:23:29;2.47;;;2.37;;
9056;SDS011;4563;54.756;9.400;2023-06-26T02:25:56;1.97;;;1.87;;
9056;SDS011;4563;54.756;9.400;2023-06-26T02:28:23;2.20;;;1.97;;
9056;SDS011;4563;54.756;9.400;2023-06-26T02:30:50;2.57;;;2.37;;
9056;SDS011;4563;54.756;9.400;2023-06-26T02:33:21;3.70;;;3.40;;
9056;SDS011;4563;54.756;9.400;2023-06-26T02:35:48;2.50;;;2.30;;
9056;SDS011;4563;54.756;9.400;2023-06-26T02:38:16;3.03;;;2.87;;
9056;SDS011;4563;54.756;9.400;2023-06-26T02:40:42;4.80;;;2.60;;
9056;SDS011;4563;54.756;9.400;2023-06-26T02:43:09;4.20;;;2.33;;
9056;SDS011;4563;54.756;9.400;2023-06-26T02:45:36;2.93;;;2.73;;
9056;SDS011;4563;54.756;9.400;2023-06-26T02:48:04;2.43;;;2.10;;
9056;SDS011;4563;54.756;9.400;2023-06-26T02:50:32;2.83;;;2.63;;
9056;SDS011;4563;54.756;9.400;2023-06-26T02:52:59;3.00;;;2.70;;
9056;SDS011;4563;54.756;9.400;2023-06-26T02:55:26;2.30;;;2.20;;
9056;SDS011;4563;54.756;9.400;2023-06-26T02:57:55;4.83;;;4.53;;
9056;SDS011;4563;54.756;9.400;2023-06-26T03:00:22;3.43;;;2.10;;
9056;SDS011;4563;54.756;9.400;2023-06-26T03:02:49;3.37;;;3.07;;
9056;SDS011;4563;54.756;9.400;2023-06-26T03:05:16;2.90;;;2.70;;
9056;SDS011;4563;54.756;9.400;2023-06-26T03:07:47;3.27;;;2.80;;
9056;SDS011;4563;54.756;9.400;2023-06-26T03:10:14;2.63;;;2.53;;
9056;SDS011;4563;54.756;9.400;2023-06-26T03:12:41;4.70;;;2.70;;
9056;SDS011;4563;54.756;9.400;2023-06-26T03:15:08;2.63;;;2.43;;
9056;SDS011;4563;54.756;9.400;2023-06-26T03:17:36;2.40;;;2.30;;
9056;SDS011;4563;54.756;9.400;2023-06-26T03:20:05;2.67;;;2.47;;
9056;SDS011;4563;54.756;9.400;2023-06-26T03:22:33;2.47;;;2.37;;
9056;SDS011;4563;54.756;9.400;2023-06-26T03:25:01;2.77;;;2.57;;
9056;SDS011;4563;54.756;9.400;2023-06-26T03:27:30;2.40;;;2.20;;
9056;SDS011;4563;54.756;9.400;2023-06-26T03:29:57;3.33;;;2.40;;
9056;SDS011;4563;54.756;9.400;2023-06-26T03:32:24;3.13;;;2.83;;
9056;SDS011;4563;54.756;9.400;2023-06-26T03:34:51;3.07;;;2.77;;
9056;SDS011;4563;54.756;9.400;2023-06-26T03:37:19;2.53;;;2.33;;
9056;SDS011;4563;54.756;9.400;2023-06-26T03:39:48;2.27;;;2.17;;
9056;SDS011;4563;54.756;9.400;2023-06-26T03:42:17;2.93;;;2.73;;
9056;SDS011;4563;54.756;9.400;2023-06-26T03:44:43;3.30;;;3.00;;
9056;SDS011;4563;54.756;9.400;2023-06-26T03:47:10;2.77;;;2.37;;
9056;SDS011;4563;54.756;9.400;2023-06-26T03:49:37;2.90;;;2.70;;
9056;SDS011;4563;54.756;9.400;2023-06-26T03:52:04;3.00;;;2.80;;
9056;SDS011;4563;54.756;9.400;2023-06-26T03:54:31;2.90;;;2.70;;
9056;SDS011;4563;54.756;9.400;2023-06-26T03:57:00;2.70;;;2.50;;
9056;SDS011;4563;54.756;9.400;2023-06-26T03:59:28;3.03;;;2.73;;
9056;SDS011;4563;54.756;9.400;2023-06-26T04:01:56;2.97;;;2.70;;
9056;SDS011;4563;54.756;9.400;2023-06-26T04:04:26;2.50;;;2.30;;
9056;SDS011;4563;54.756;9.400;2023-06-26T04:06:53;2.90;;;2.70;;
9056;SDS011;4563;54.756;9.400;2023-06-26T04:09:20;2.83;;;2.63;;
9056;SDS011;4563;54.756;9.400;2023-06-26T04:11:47;3.27;;;3.07;;
9056;SDS011;4563;54.756;9.400;2023-06-26T04:14:14;2.70;;;2.30;;
9056;SDS011;4563;54.756;9.400;2023-06-26T04:16:48;3.20;;;3.00;;
9056;SDS011;4563;54.756;9.400;2023-06-26T04:19:14;3.23;;;3.03;;
9056;SDS011;4563;54.756;9.400;2023-06-26T04:21:41;4.00;;;3.03;;
9056;SDS011;4563;54.756;9.400;2023-06-26T04:24:08;2.90;;;2.57;;
9056;SDS011;4563;54.756;9.400;2023-06-26T04:26:38;2.60;;;2.40;;
9056;SDS011;4563;54.756;9.400;2023-06-26T04:29:07;3.23;;;3.03;;
9056;SDS011;4563;54.756;9.400;2023-06-26T04:31:34;3.63;;;3.30;;
9056;SDS011;4563;54.756;9.400;2023-06-26T04:34:02;3.20;;;3.00;;
9056;SDS011;4563;54.756;9.400;2023-06-26T04:36:29;3.60;;;3.40;;
9056;SDS011;4563;54.756;9.400;2023-06-26T04:38:58;3.33;;;3.13;;
9056;SDS011;4563;54.756;9.400;2023-06-26T04:41:25;3.40;;;3.13;;
9056;SDS011;4563;54.756;9.400;2023-06-26T04:43:52;4.80;;;2.93;;
9056;SDS011;4563;54.756;9.400;2023-06-26T04:46:19;2.87;;;2.67;;
9056;SDS011;4563;54.756;9.400;2023-06-26T04:48:45;3.10;;;2.90;;
9056;SDS011;4563;54.756;9.400;2023-06-26T04:51:14;3.57;;;3.27;;
9056;SDS011;4563;54.756;9.400;2023-06-26T04:53:41;3.50;;;3.20;;
9056;SDS011;4563;54.756;9.400;2023-06-26T04:56:07;3.30;;;3.10;;
9056;SDS011;4563;54.756;9.400;2023-06-26T04:58:35;5.47;;;3.27;;
9056;SDS011;4563;54.756;9.400;2023-06-26T05:01:02;3.50;;;3.20;;
9056;SDS011;4563;54.756;9.400;2023-06-26T05:03:31;3.37;;;3.07;;
9056;SDS011;4563;54.756;9.400;2023-06-26T05:06:00;4.53;;;3.30;;
9056;SDS011;4563;54.756;9.400;2023-06-26T05:08:31;3.40;;;3.07;;
9056;SDS011;4563;54.756;9.400;2023-06-26T05:10:58;3.43;;;3.10;;
9056;SDS011;4563;54.756;9.400;2023-06-26T05:13:25;2.93;;;2.73;;
9056;SDS011;4563;54.756;9.400;2023-06-26T05:15:52;3.97;;;2.83;;
9056;SDS011;4563;54.756;9.400;2023-06-26T05:18:19;3.63;;;3.43;;
9056;SDS011;4563;54.756;9.400;2023-06-26T05:20:46;4.40;;;3.00;;
9056;SDS011;4563;54.756;9.400;2023-06-26T05:23:13;4.27;;;3.17;;
9056;SDS011;4563;54.756;9.400;2023-06-26T05:25:44;3.27;;;3.07;;
9056;SDS011;4563;54.756;9.400;2023-06-26T05:28:11;3.53;;;3.00;;
9056;SDS011;4563;54.756;9.400;2023-06-26T05:30:40;3.33;;;3.07;;
9056;SDS011;4563;54.756;9.400;2023-06-26T05:33:08;3.90;;;3.63;;
9056;SDS011;4563;54.756;9.400;2023-06-26T05:35:38;3.47;;;3.17;;
9056;SDS011;4563;54.756;9.400;2023-06-26T05:38:05;4.40;;;4.00;;
9056;SDS011;4563;54.756;9.400;2023-06-26T05:40:33;3.40;;;3.13;;
9056;SDS011;4563;54.756;9.400;2023-06-26T05:43:07;4.23;;;3.57;;
9056;SDS011;4563;54.756;9.400;2023-06-26T05:45:34;5.20;;;3.80;;
9056;SDS011;4563;54.756;9.400;2023-06-26T05:48:01;3.30;;;3.17;;
9056;SDS011;4563;54.756;9.400;2023-06-26T05:50:29;3.43;;;3.13;;
9056;SDS011;4563;54.756;9.400;2023-06-26T05:52:56;2.83;;;2.70;;
9056;SDS011;4563;54.756;9.400;2023-06-26T05:55:24;3.27;;;2.97;;
9056;SDS011;4563;54.756;9.400;2023-06-26T05:57:52;3.40;;;2.80;;
9056;SDS011;4563;54.756;9.400;2023-06-26T06:00:21;6.07;;;3.93;;
9056;SDS011;4563;54.756;9.400;2023-06-26T06:02:50;3.27;;;2.90;;
9056;SDS011;4563;54.756;9.400;2023-06-26T06:05:19;3.80;;;3.60;;
9056;SDS011;4563;54.756;9.400;2023-06-26T06:07:46;4.70;;;3.27;;
9056;SDS011;4563;54.756;9.400;2023-06-26T06:10:13;3.37;;;3.07;;
9056;SDS011;4563;54.756;9.400;2023-06-26T06:12:40;9.03;;;3.50;;
9056;SDS011;4563;54.756;9.400;2023-06-26T06:15:08;8.50;;;3.63;;
9056;SDS011;4563;54.756;9.400;2023-06-26T06:17:36;3.63;;;3.33;;
9056;SDS011;4563;54.756;9.400;2023-06-26T06:20:03;3.20;;;2.93;;
9056;SDS011;4563;54.756;9.400;2023-06-26T06:22:31;4.63;;;2.80;;
9056;SDS011;4563;54.756;9.400;2023-06-26T06:24:58;3.00;;;2.80;;
9056;SDS011;4563;54.756;9.400;2023-06-26T06:27:25;3.07;;;2.90;;
9056;SDS011;4563;54.756;9.400;2023-06-26T06:29:52;9.40;;;3.00;;
9056;SDS011;4563;54.756;9.400;2023-06-26T06:32:19;3.10;;;2.93;;
9056;SDS011;4563;54.756;9.400;2023-06-26T06:34:50;4.88;;;3.00;;
9056;SDS011;4563;54.756;9.400;2023-06-26T06:37:17;2.95;;;2.80;;
9056;SDS011;4563;54.756;9.400;2023-06-26T06:39:44;2.70;;;2.50;;
9056;SDS011;4563;54.756;9.400;2023-06-26T06:42:11;2.75;;;2.55;;
9056;SDS011;4563;54.756;9.400;2023-06-26T06:44:38;3.10;;;2.90;;
9056;SDS011;4563;54.756;9.400;2023-06-26T06:47:05;3.10;;;2.50;;
9056;SDS011;4563;54.756;9.400;2023-06-26T06:49:31;3.03;;;2.90;;
9056;SDS011;4563;54.756;9.400;2023-06-26T06:52:00;2.80;;;2.67;;
9056;SDS011;4563;54.756;9.400;2023-06-26T06:54:27;2.72;;;2.45;;
9056;SDS011;4563;54.756;9.400;2023-06-26T06:56:54;2.90;;;2.70;;
9056;SDS011;4563;54.756;9.400;2023-06-26T06:59:21;4.03;;;2.55;;
9056;SDS011;4563;54.756;9.400;2023-06-26T07:01:47;3.17;;;2.97;;
9056;SDS011;4563;54.756;9.400;2023-06-26T07:04:14;6.18;;;3.33;;
9056;SDS011;4563;54.756;9.400;2023-06-26T07:06:41;2.85;;;2.75;;
9056;SDS011;4563;54.756;9.400;2023-06-26T07:09:09;4.30;;;2.72;;
9056;SDS011;4563;54.756;9.400;2023-06-26T07:11:36;3.40;;;2.90;;
9056;SDS011;4563;54.756;9.400;2023-06-26T07:14:03;2.80;;;2.70;;
9056;SDS011;4563;54.756;9.400;2023-06-26T07:16:30;3.05;;;2.75;;
9056;SDS011;4563;54.756;9.400;2023-06-26T07:18:57;5.22;;;3.00;;
9056;SDS011;4563;54.756;9.400;2023-06-26T07:21:23;3.33;;;3.10;;
9056;SDS011;4563;54.756;9.400;2023-06-26T07:23:50;2.97;;;2.78;;
9056;SDS011;4563;54.756;9.400;2023-06-26T07:26:19;3.22;;;3.03;;
9056;SDS011;4563;54.756;9.400;2023-06-26T07:28:47;2.97;;;2.78;;
9056;SDS011;4563;54.756;9.400;2023-06-26T07:31:14;3.35;;;3.08;;
9056;SDS011;4563;54.756;9.400;2023-06-26T07:33:42;2.80;;;2.60;;
9056;SDS011;4563;54.756;9.400;2023-06-26T07:36:09;3.33;;;2.35;;
9056;SDS011;4563;54.756;9.400;2023-06-26T07:38:35;3.33;;;2.92;;
9056;SDS011;4563;54.756;9.400;2023-06-26T07:41:02;2.63;;;2.50;;
9056;SDS011;4563;54.756;9.400;2023-06-26T07:43:31;3.47;;;3.17;;
9056;SDS011;4563;54.756;9.400;2023-06-26T07:45:58;2.85;;;2.75;;
9056;SDS011;4563;54.756;9.400;2023-06-26T07:48:24;4.95;;;2.58;;
9056;SDS011;4563;54.756;9.400;2023-06-26T07:50:51;2.75;;;2.65;;
9056;SDS011;4563;54.756;9.400;2023-06-26T07:53:19;3.40;;;2.60;;
9056;SDS011;4563;54.756;9.400;2023-06-26T07:55:46;2.78;;;2.65;;
9056;SDS011;4563;54.756;9.400;2023-06-26T07:58:12;3.08;;;2.80;;
9056;SDS011;4563;54.756;9.400;2023-06-26T08:00:41;5.68;;;3.35;;
9056;SDS011;4563;54.756;9.400;2023-06-26T08:03:08;8.80;;;3.40;;
9056;SDS011;4563;54.756;9.400;2023-06-26T08:05:34;4.88;;;3.22;;
9056;SDS011;4563;54.756;9.400;2023-06-26T08:08:01;3.22;;;2.70;;
9056;SDS011;4563;54.756;9.400;2023-06-26T08:10:28;3.45;;;3.13;;
9056;SDS011;4563;54.756;9.400;2023-06-26T08:12:55;3.20;;;3.05;;
9056;SDS011;4563;54.756;9.400;2023-06-26T08:15:23;3.40;;;3.20;;
9056;SDS011;4563;54.756;9.400;2023-06-26T08:17:51;3.67;;;3.45;;
9056;SDS011;4563;54.756;9.400;2023-06-26T08:20:18;4.35;;;3.53;;
9056;SDS011;4563;54.756;9.400;2023-06-26T08:22:45;6.93;;;3.60;;
9056;SDS011;4563;54.756;9.400;2023-06-26T08:25:14;4.53;;;3.67;;
9056;SDS011;4563;54.756;9.400;2023-06-26T08:27:41;4.82;;;4.43;;
9056;SDS011;4563;54.756;9.400;2023-06-26T08:30:08;5.53;;;4.15;;
9056;SDS011;4563;54.756;9.400;2023-06-26T08:32:35;4.60;;;4.30;;
9056;SDS011;4563;54.756;9.400;2023-06-26T08:35:03;5.68;;;5.22;;
9056;SDS011;4563;54.756;9.400;2023-06-26T08:37:31;6.05;;;5.65;;
9056;SDS011;4563;54.756;9.400;2023-06-26T08:39:58;6.55;;;5.95;;
9056;SDS011;4563;54.756;9.400;2023-06-26T08:42:25;6.97;;;5.13;;
9056;SDS011;4563;54.756;9.400;2023-06-26T08:44:52;6.70;;;5.53;;
9056;SDS011;4563;54.756;9.400;2023-06-26T08:47:19;6.25;;;5.65;;
9056;SDS011;4563;54.756;9.400;2023-06-26T08:49:46;6.65;;;5.95;;
9056;SDS011;4563;54.756;9.400;2023-06-26T08:52:20;10.25;;;6.03;;
9056;SDS011;4563;54.756;9.400;2023-06-26T08:54:52;8.00;;;7.22;;
9056;SDS011;4563;54.756;9.400;2023-06-26T08:57:22;7.05;;;5.72;;
9056;SDS011;4563;54.756;9.400;2023-06-26T08:59:51;7.68;;;6.88;;
9056;SDS011;4563;54.756;9.400;2023-06-26T09:02:18;7.15;;;6.35;;
9056;SDS011;4563;54.756;9.400;2023-06-26T09:04:47;6.78;;;6.10;;
9056;SDS011;4563;54.756;9.400;2023-06-26T09:07:14;8.95;;;6.32;;
9056;SDS011;4563;54.756;9.400;2023-06-26T09:09:42;6.72;;;6.13;;
9056;SDS011;4563;54.756;9.400;2023-06-26T09:12:09;7.03;;;5.95;;
9056;SDS011;4563;54.756;9.400;2023-06-26T09:14:36;6.20;;;5.32;;
9056;SDS011;4563;54.756;9.400;2023-06-26T09:17:03;5.95;;;5.35;;
9056;SDS011;4563;54.756;9.400;2023-06-26T09:19:30;6.15;;;4.75;;
9056;SDS011;4563;54.756;9.400;2023-06-26T09:21:57;5.38;;;4.68;;
9056;SDS011;4563;54.756;9.400;2023-06-26T09:24:24;6.32;;;4.30;;
9056;SDS011;4563;54.756;9.400;2023-06-26T09:26:53;5.57;;;3.90;;
9056;SDS011;4563;54.756;9.400;2023-06-26T09:29:20;5.55;;;4.20;;
9056;SDS011;4563;54.756;9.400;2023-06-26T09:31:47;4.85;;;4.30;;
9056;SDS011;4563;54.756;9.400;2023-06-26T09:34:14;4.28;;;3.88;;
9056;SDS011;4563;54.756;9.400;2023-06-26T09:36:41;4.85;;;3.40;;
9056;SDS011;4563;54.756;9.400;2023-06-26T09:39:20;5.57;;;3.80;;
9056;SDS011;4563;54.756;9.400;2023-06-26T09:41:47;3.88;;;2.78;;
9056;SDS011;4563;54.756;9.400;2023-06-26T09:44:15;3.50;;;2.50;;
9056;SDS011;4563;54.756;9.400;2023-06-26T09:46:44;5.57;;;2.80;;
9056;SDS011;4563;54.756;9.400;2023-06-26T09:49:11;4.95;;;2.92;;
9056;SDS011;4563;54.756;9.400;2023-06-26T09:51:39;7.82;;;2.72;;
9056;SDS011;4563;54.756;9.400;2023-06-26T09:54:07;3.90;;;2.78;;
9056;SDS011;4563;54.756;9.400;2023-06-26T09:56:35;6.30;;;2.97;;
9056;SDS011;4563;54.756;9.400;2023-06-26T09:59:03;6.70;;;3.17;;
9056;SDS011;4563;54.756;9.400;2023-06-26T10:01:32;5.72;;;2.50;;
9056;SDS011;4563;54.756;9.400;2023-06-26T10:03:59;4.22;;;2.35;;
9056;SDS011;4563;54.756;9.400;2023-06-26T10:06:27;3.83;;;2.33;;
9056;SDS011;4563;54.756;9.400;2023-06-26T10:08:58;2.13;;;1.92;;
9056;SDS011;4563;54.756;9.400;2023-06-26T10:11:29;2.17;;;1.88;;
9056;SDS011;4563;54.756;9.400;2023-06-26T10:14:03;2.20;;;2.10;;
9056;SDS011;4563;54.756;9.400;2023-06-26T10:16:34;4.30;;;2.05;;
9056;SDS011;4563;54.756;9.400;2023-06-26T10:19:08;2.30;;;2.05;;
9056;SDS011;4563;54.756;9.400;2023-06-26T10:21:37;3.42;;;1.83;;
9056;SDS011;4563;54.756;9.400;2023-06-26T10:24:05;2.25;;;2.05;;
9056;SDS011;4563;54.756;9.400;2023-06-26T10:26:34;3.80;;;1.98;;
9056;SDS011;4563;54.756;9.400;2023-06-26T10:29:04;2.55;;;2.25;;
9056;SDS011;4563;54.756;9.400;2023-06-26T10:31:35;2.35;;;2.15;;
9056;SDS011;4563;54.756;9.400;2023-06-26T10:34:03;2.35;;;2.15;;
9056;SDS011;4563;54.756;9.400;2023-06-26T10:36:31;2.45;;;1.92;;
9056;SDS011;4563;54.756;9.400;2023-06-26T10:39:01;2.70;;;2.27;;
9056;SDS011;4563;54.756;9.400;2023-06-26T10:41:36;3.40;;;2.30;;
9056;SDS011;4563;54.756;9.400;2023-06-26T10:44:08;2.73;;;2.17;;
9056;SDS011;4563;54.756;9.400;2023-06-26T10:46:50;3.80;;;1.90;;
9056;SDS011;4563;54.756;9.400;2023-06-26T10:49:18;4.20;;;2.10;;
9056;SDS011;4563;54.756;9.400;2023-06-26T10:51:46;2.93;;;1.90;;
9056;SDS011;4563;54.756;9.400;2023-06-26T10:54:15;5.63;;;1.93;;
9056;SDS011;4563;54.756;9.400;2023-06-26T10:56:43;3.17;;;2.27;;
9056;SDS011;4563;54.756;9.400;2023-06-26T10:59:13;3.53;;;1.90;;
9056;SDS011;4563;54.756;9.400;2023-06-26T11:01:42;7.23;;;2.17;;
9056;SDS011;4563;54.756;9.400;2023-06-26T11:04:12;4.80;;;2.40;;
9056;SDS011;4563;54.756;9.400;2023-06-26T11:06:41;4.63;;;1.70;;
9056;SDS011;4563;54.756;9.400;2023-06-26T11:09:14;6.43;;;2.30;;
9056;SDS011;4563;54.756;9.400;2023-06-26T11:11:56;5.00;;;1.90;;
9056;SDS011;4563;54.756;9.400;2023-06-26T11:14:31;2.93;;;1.23;;
9056;SDS011;4563;54.756;9.400;2023-06-26T11:16:58;7.03;;;1.80;;
9056;SDS011;4563;54.756;9.400;2023-06-26T11:19:30;4.87;;;0.97;;
9056;SDS011;4563;54.756;9.400;2023-06-26T11:21:58;5.90;;;1.10;;
9056;SDS011;4563;54.756;9.400;2023-06-26T11:24:27;2.97;;;1.43;;
9056;SDS011;4563;54.756;9.400;2023-06-26T11:26:59;1.60;;;0.70;;
9056;SDS011;4563;54.756;9.400;2023-06-26T11:29:29;3.10;;;2.50;;
9056;SDS011;4563;54.756;9.400;2023-06-26T11:32:00;4.73;;;0.87;;
9056;SDS011;4563;54.756;9.400;2023-06-26T11:34:32;2.27;;;0.70;;
9056;SDS011;4563;54.756;9.400;2023-06-26T11:37:00;1.93;;;0.80;;
9056;SDS011;4563;54.756;9.400;2023-06-26T11:39:31;3.93;;;1.13;;
9056;SDS011;4563;54.756;9.400;2023-06-26T11:42:00;4.23;;;0.90;;
9056;SDS011;4563;54.756;9.400;2023-06-26T11:44:29;4.33;;;0.80;;
9056;SDS011;4563;54.756;9.400;2023-06-26T11:46:58;3.40;;;1.00;;
9056;SDS011;4563;54.756;9.400;2023-06-26T11:49:25;4.20;;;1.33;;
9056;SDS011;4563;54.756;9.400;2023-06-26T11:51:57;2.13;;;0.73;;
9056;SDS011;4563;54.756;9.400;2023-06-26T11:54:27;3.90;;;1.07;;
9056;SDS011;4563;54.756;9.400;2023-06-26T11:56:57;3.53;;;0.93;;
9056;SDS011;4563;54.756;9.400;2023-06-26T11:59:32;2.07;;;0.97;;
9056;SDS011;4563;54.756;9.400;2023-06-26T12:02:04;5.53;;;1.27;;
9056;SDS011;4563;54.756;9.400;2023-06-26T12:04:32;5.20;;;1.10;;
9056;SDS011;4563;54.756;9.400;2023-06-26T12:07:01;3.50;;;1.23;;
9056;SDS011;4563;54.756;9.400;2023-06-26T12:09:30;3.87;;;1.10;;
9056;SDS011;4563;54.756;9.400;2023-06-26T12:11:59;5.77;;;1.00;;
9056;SDS011;4563;54.756;9.400;2023-06-26T12:14:26;2.83;;;1.07;;
9056;SDS011;4563;54.756;9.400;2023-06-26T12:16:56;7.33;;;0.93;;
9056;SDS011;4563;54.756;9.400;2023-06-26T12:19:30;6.93;;;1.20;;
9056;SDS011;4563;54.756;9.400;2023-06-26T12:21:57;3.53;;;1.10;;
9056;SDS011;4563;54.756;9.400;2023-06-26T12:24:27;5.07;;;1.10;;
9056;SDS011;4563;54.756;9.400;2023-06-26T12:26:54;3.57;;;1.10;;
9056;SDS011;4563;54.756;9.400;2023-06-26T12:29:28;4.10;;;1.13;;
9056;SDS011;4563;54.756;9.400;2023-06-26T12:31:57;4.03;;;0.70;;
9056;SDS011;4563;54.756;9.400;2023-06-26T12:34:26;1.77;;;0.70;;
9056;SDS011;4563;54.756;9.400;2023-06-26T12:36:53;3.60;;;1.13;;
9056;SDS011;4563;54.756;9.400;2023-06-26T12:39:28;3.53;;;0.80;;
9056;SDS011;4563;54.756;9.400;2023-06-26T12:41:56;2.77;;;0.93;;
9056;SDS011;4563;54.756;9.400;2023-06-26T12:44:25;2.20;;;0.70;;
9056;SDS011;4563;54.756;9.400;2023-06-26T12:46:54;1.77;;;0.60;;
9056;SDS011;4563;54.756;9.400;2023-06-26T12:49:31;2.43;;;0.50;;
9056;SDS011;4563;54.756;9.400;2023-06-26T12:51:59;1.60;;;0.47;;
9056;SDS011;4563;54.756;9.400;2023-06-26T12:54:34;1.90;;;0.67;;
9056;SDS011;4563;54.756;9.400;2023-06-26T12:57:02;5.33;;;0.97;;
9056;SDS011;4563;54.756;9.400;2023-06-26T12:59:30;3.20;;;0.60;;
9056;SDS011;4563;54.756;9.400;2023-06-26T13:01:57;3.03;;;0.57;;
9056;SDS011;4563;54.756;9.400;2023-06-26T13:04:24;1.47;;;0.50;;
9056;SDS011;4563;54.756;9.400;2023-06-26T13:06:51;2.50;;;0.80;;
9056;SDS011;4563;54.756;9.400;2023-06-26T13:09:19;2.77;;;0.60;;
9056;SDS011;4563;54.756;9.400;2023-06-26T13:11:48;3.67;;;0.60;;
9056;SDS011;4563;54.756;9.400;2023-06-26T13:14:15;2.03;;;0.60;;
9056;SDS011;4563;54.756;9.400;2023-06-26T13:16:46;3.70;;;0.53;;
9056;SDS011;4563;54.756;9.400;2023-06-26T13:19:17;2.90;;;0.47;;
9056;SDS011;4563;54.756;9.400;2023-06-26T13:21:44;4.00;;;0.50;;
9056;SDS011;4563;54.756;9.400;2023-06-26T13:24:11;2.37;;;0.60;;
9056;SDS011;4563;54.756;9.400;2023-06-26T13:26:38;1.47;;;0.40;;
9056;SDS011;4563;54.756;9.400;2023-06-26T13:29:07;1.13;;;0.50;;
9056;SDS011;4563;54.756;9.400;2023-06-26T13:31:34;1.53;;;0.60;;
9056;SDS011;4563;54.756;9.400;2023-06-26T13:34:01;0.80;;;0.50;;
9056;SDS011;4563;54.756;9.400;2023-06-26T13:36:30;5.67;;;0.70;;
9056;SDS011;4563;54.756;9.400;2023-06-26T13:38:59;1.70;;;0.40;;
9056;SDS011;4563;54.756;9.400;2023-06-26T13:41:27;5.63;;;0.47;;
9056;SDS011;4563;54.756;9.400;2023-06-26T13:43:57;4.33;;;0.50;;
9056;SDS011;4563;54.756;9.400;2023-06-26T13:46:26;4.40;;;0.60;;
9056;SDS011;4563;54.756;9.400;2023-06-26T13:48:55;2.03;;;0.50;;
9056;SDS011;4563;54.756;9.400;2023-06-26T13:51:23;1.47;;;0.60;;
9056;SDS011;4563;54.756;9.400;2023-06-26T13:53:50;6.10;;;0.57;;
9056;SDS011;4563;54.756;9.400;2023-06-26T13:56:17;4.97;;;0.70;;
9056;SDS011;4563;54.756;9.400;2023-06-26T13:58:44;0.70;;;0.43;;
9056;SDS011;4563;54.756;9.400;2023-06-26T14:01:10;1.67;;;0.70;;
9056;SDS011;4563;54.756;9.400;2023-06-26T14:03:40;3.13;;;1.33;;
9056;SDS011;4563;54.756;9.400;2023-06-26T14:06:08;2.97;;;0.60;;
9056;SDS011;4563;54.756;9.400;2023-06-26T14:08:35;1.67;;;0.70;;
9056;SDS011;4563;54.756;9.400;2023-06-26T14:11:02;1.13;;;0.40;;
9056;SDS011;4563;54.756;9.400;2023-06-26T14:13:29;2.10;;;0.50;;
9056;SDS011;4563;54.756;9.400;2023-06-26T14:15:56;2.10;;;0.60;;
9056;SDS011;4563;54.756;9.400;2023-06-26T14:18:22;1.80;;;0.60;;
9056;SDS011;4563;54.756;9.400;2023-06-26T14:20:51;3.40;;;0.50;;
9056;SDS011;4563;54.756;9.400;2023-06-26T14:23:21;4.00;;;0.67;;
9056;SDS011;4563;54.756;9.400;2023-06-26T14:25:52;2.90;;;0.60;;
9056;SDS011;4563;54.756;9.400;2023-06-26T14:28:19;2.70;;;0.67;;
9056;SDS011;4563;54.756;9.400;2023-06-26T14:30:46;2.10;;;0.60;;
9056;SDS011;4563;54.756;9.400;2023-06-26T14:33:13;2.57;;;0.50;;
9056;SDS011;4563;54.756;9.400;2023-06-26T14:35:40;2.80;;;0.97;;
9056;SDS011;4563;54.756;9.400;2023-06-26T14:38:11;3.03;;;0.50;;
9056;SDS011;4563;54.756;9.400;2023-06-26T14:40:38;2.20;;;0.70;;
9056;SDS011;4563;54.756;9.400;2023-06-26T14:43:05;3.53;;;0.50;;
9056;SDS011;4563;54.756;9.400;2023-06-26T14:45:35;0.60;;;0.40;;
9056;SDS011;4563;54.756;9.400;2023-06-26T14:48:02;1.47;;;0.40;;
9056;SDS011;4563;54.756;9.400;2023-06-26T14:50:30;3.60;;;0.60;;
9056;SDS011;4563;54.756;9.400;2023-06-26T14:52:58;3.07;;;0.57;;
9056;SDS011;4563;54.756;9.400;2023-06-26T14:55:27;1.23;;;0.43;;
9056;SDS011;4563;54.756;9.400;2023-06-26T14:57:54;2.43;;;0.53;;
9056;SDS011;4563;54.756;9.400;2023-06-26T15:00:22;3.10;;;0.70;;
9056;SDS011;4563;54.756;9.400;2023-06-26T15:02:50;3.03;;;0.50;;
9056;SDS011;4563;54.756;9.400;2023-06-26T15:05:18;5.90;;;0.70;;
9056;SDS011;4563;54.756;9.400;2023-06-26T15:07:46;1.57;;;0.60;;
9056;SDS011;4563;54.756;9.400;2023-06-26T15:10:14;2.80;;;0.57;;
9056;SDS011;4563;54.756;9.400;2023-06-26T15:12:42;1.57;;;0.60;;
9056;SDS011;4563;54.756;9.400;2023-06-26T15:15:09;2.03;;;0.67;;
9056;SDS011;4563;54.756;9.400;2023-06-26T15:17:36;3.13;;;0.60;;
9056;SDS011;4563;54.756;9.400;2023-06-26T15:20:04;3.30;;;0.60;;
9056;SDS011;4563;54.756;9.400;2023-06-26T15:22:32;2.97;;;0.40;;